Página principal
METAR-TAF:

METAR-TAF

Aeroportos :

Bryce Canyon, Utah, Estados Unidos

latitude: 37-42-23N, longitude: 112-08-44W, altura: 2312 m

Observação actual do tempo

O boletim foi feito há 59 minutos, às 18:53 UTC
Vento 9 kt de sudeste
Temperatura 6°C
Humidade 39%
Pressão 1028 hPa
Visibilidade: 16.1 km
Céu limpo

METAR: KBCE 251853Z AUTO 14009KT 10SM CLR 06/M07 A3036 RMK AO2 SLP250 T00561072

Hora: 13:52 (19:52 UTC)

Previsão

O boletim foi feito há 2 horas e 32 minutos, às 17:20 UTC
Previsão válida de 25 às 18 UTC a 26 às 18 UTC
Vento 10 kt de noroeste
Visibilidade: 10 km
Nuvens dispersasa uma altura de 25000 ft
A partir de 26 às 0500 UTC
Vento 6 kt de sudoeste
Visibilidade: 10 km
Poucas nuvensa uma altura de 25000 ft
A partir de 26 às 1500 UTC
Vento 8 kt de su-sudeste
Visibilidade: 10 km
Nuvens dispersasa uma altura de 25000 ft

TAF: KBCE 251720Z 2518/2618 32010KT P6SM SCT250 FM260500 22006KT P6SM FEW250 FM261500 15008KT P6SM SCT250

Observações e previsões do tempo de mais de 4000 aeroportos (mensagens METAR e TAF).

As estações disponíveis são os pontos amarelos e vermelhos sobre o mapa.

Mova o rato sobre o mapa para ver o nome da estação.

Depois clique no ponto para visualizar as observações e previsões meteorológicas.

Para alterar o mapa : clique nos botões verdes com uma cruz preta para aumentar o zoom; no botão verde com uma pitada de zoom; ou nas setas verdes para mapas adjacentes.


METAR-TAF: